createdAt,value
2022-11-08T00:00:43.821Z,15.70
2022-11-08T00:03:11.292Z,15.38
2022-11-08T00:05:57.426Z,14.23
2022-11-08T00:08:43.354Z,14.48
2022-11-08T00:11:31.500Z,14.38
2022-11-08T00:14:01.768Z,14.80
2022-11-08T00:16:29.520Z,14.18
2022-11-08T00:18:57.104Z,13.15
2022-11-08T00:21:24.681Z,13.93
2022-11-08T00:23:56.492Z,15.05
2022-11-08T00:26:23.867Z,13.27
2022-11-08T00:28:50.991Z,14.20
2022-11-08T00:31:18.429Z,13.77
2022-11-08T00:33:48.522Z,12.43
2022-11-08T00:36:15.934Z,12.93
2022-11-08T00:38:45.384Z,14.55
2022-11-08T00:41:13.141Z,13.77
2022-11-08T00:43:42.555Z,14.10
2022-11-08T00:46:10.241Z,13.13
2022-11-08T00:48:39.884Z,12.05
2022-11-08T00:51:10.325Z,12.55
2022-11-08T00:53:38.683Z,12.88
2022-11-08T00:56:12.277Z,12.10
2022-11-08T00:58:41.620Z,12.10
2022-11-08T01:01:13.256Z,12.07
2022-11-08T01:03:40.543Z,13.50
2022-11-08T01:06:12.319Z,13.05
2022-11-08T01:08:39.674Z,13.63
2022-11-08T01:11:14.133Z,12.25
2022-11-08T01:13:41.712Z,11.93
2022-11-08T01:16:11.964Z,12.85
2022-11-08T01:18:40.092Z,12.07
2022-11-08T01:21:10.370Z,12.80
2022-11-08T01:23:37.904Z,12.93
2022-11-08T01:26:08.909Z,12.40
2022-11-08T01:28:41.340Z,12.00
2022-11-08T01:31:13.594Z,13.15
2022-11-08T01:33:42.953Z,13.25
2022-11-08T01:36:17.536Z,13.20
2022-11-08T01:38:44.770Z,13.45
2022-11-08T01:41:14.298Z,11.85
2022-11-08T01:43:44.381Z,13.27
2022-11-08T01:46:43.478Z,12.73
2022-11-08T01:49:32.573Z,12.90
2022-11-08T01:52:19.419Z,13.88
2022-11-08T01:55:00.434Z,12.38
2022-11-08T01:57:36.482Z,14.02
2022-11-08T02:00:08.048Z,12.82
2022-11-08T02:02:36.895Z,15.30
2022-11-08T02:05:06.665Z,13.15
2022-11-08T02:07:34.764Z,13.70
2022-11-08T02:10:04.818Z,13.75
2022-11-08T02:12:36.895Z,13.88
2022-11-08T02:15:07.697Z,13.52
2022-11-08T02:17:37.274Z,15.52
2022-11-08T02:20:04.712Z,13.32
2022-11-08T02:22:41.892Z,13.80
2022-11-08T02:25:09.167Z,12.20
2022-11-08T02:27:38.928Z,14.27
2022-11-08T02:30:06.489Z,13.20
2022-11-08T02:32:40.858Z,14.18
2022-11-08T02:35:15.127Z,14.27
2022-11-08T02:37:45.610Z,13.48
2022-11-08T02:40:15.233Z,13.90
2022-11-08T02:42:50.467Z,13.15
2022-11-08T02:45:17.639Z,13.82
2022-11-08T02:47:47.983Z,14.63
2022-11-08T02:50:15.123Z,14.55
2022-11-08T02:52:44.712Z,12.88
2022-11-08T02:55:11.849Z,14.10
2022-11-08T02:57:39.188Z,14.90
2022-11-08T03:00:06.848Z,13.63
2022-11-08T03:02:34.327Z,13.90
2022-11-08T03:05:01.413Z,13.90
2022-11-08T03:07:28.852Z,14.75
2022-11-08T03:09:58.224Z,14.02
2022-11-08T03:12:30.135Z,14.68
2022-11-08T03:14:59.487Z,14.07
2022-11-08T03:17:26.795Z,13.98
2022-11-08T03:19:53.950Z,14.77
2022-11-08T03:22:26.070Z,14.85
2022-11-08T03:24:55.312Z,14.18
2022-11-08T03:27:23.803Z,15.18
2022-11-08T03:29:53.009Z,15.35
2022-11-08T03:32:20.404Z,15.30
2022-11-08T03:34:49.805Z,14.93
2022-11-08T03:37:17.232Z,15.45
2022-11-08T03:39:46.751Z,15.10
2022-11-08T03:42:14.316Z,15.13
2022-11-08T03:44:43.639Z,15.13
2022-11-08T03:47:10.980Z,14.65
2022-11-08T03:49:40.341Z,13.73
2022-11-08T03:52:09.988Z,14.40
2022-11-08T03:54:42.058Z,15.77
2022-11-08T03:57:11.998Z,14.63
2022-11-08T03:59:39.085Z,14.68
2022-11-08T04:02:06.446Z,15.02
2022-11-08T04:04:36.201Z,15.82
2022-11-08T04:07:03.582Z,15.63
2022-11-08T04:09:33.029Z,12.98
2022-11-08T04:12:18.793Z,14.60
2022-11-08T04:15:09.103Z,15.48
2022-11-08T04:17:54.970Z,14.95
2022-11-08T04:20:40.563Z,13.93
2022-11-08T04:23:10.165Z,15.32
2022-11-08T04:25:37.254Z,15.77
2022-11-08T04:28:05.373Z,15.75
2022-11-08T04:30:33.459Z,14.90
2022-11-08T04:33:01.857Z,15.63
2022-11-08T04:35:30.182Z,14.93
2022-11-08T04:38:02.046Z,15.20
2022-11-08T04:40:33.174Z,15.88
2022-11-08T04:43:05.728Z,16.63
2022-11-08T04:45:32.778Z,14.32
2022-11-08T04:48:05.145Z,16.75
2022-11-08T04:50:32.379Z,16.05
2022-11-08T04:52:59.715Z,14.20
2022-11-08T04:55:26.799Z,16.75
2022-11-08T04:57:59.981Z,17.27
2022-11-08T05:00:27.492Z,15.88
2022-11-08T05:02:55.200Z,17.20
2022-11-08T05:05:24.964Z,17.73
2022-11-08T05:07:53.601Z,17.23
2022-11-08T05:10:20.781Z,18.40
2022-11-08T05:12:48.086Z,17.13
2022-11-08T05:15:15.199Z,16.92
2022-11-08T05:17:44.910Z,17.60
2022-11-08T05:20:30.420Z,17.48
2022-11-08T05:23:21.002Z,17.70
2022-11-08T05:25:54.650Z,17.92
2022-11-08T05:28:24.472Z,19.35
2022-11-08T05:30:58.841Z,19.35
2022-11-08T05:33:30.940Z,19.85
2022-11-08T05:36:06.023Z,18.10
2022-11-08T05:38:34.553Z,17.13
2022-11-08T05:41:16.271Z,19.30
2022-11-08T05:43:46.343Z,18.13
2022-11-08T05:46:17.211Z,18.98
2022-11-08T05:48:46.938Z,19.85
2022-11-08T05:51:18.936Z,21.17
2022-11-08T05:53:49.423Z,18.95
2022-11-08T05:56:21.268Z,18.20
2022-11-08T05:58:48.689Z,18.40
2022-11-08T06:01:20.415Z,18.50
2022-11-08T06:03:50.363Z,21.15
2022-11-08T06:06:23.325Z,20.65
2022-11-08T06:08:51.662Z,21.17
2022-11-08T06:11:25.340Z,19.70
2022-11-08T06:13:54.415Z,18.73
2022-11-08T06:16:23.426Z,18.23
2022-11-08T06:18:53.072Z,19.07
2022-11-08T06:21:21.356Z,17.33
2022-11-08T06:23:54.699Z,18.48
2022-11-08T06:26:24.845Z,17.38
2022-11-08T06:28:52.562Z,20.27
2022-11-08T06:31:21.853Z,18.88
2022-11-08T06:33:52.246Z,19.42
2022-11-08T06:36:21.119Z,18.13
2022-11-08T06:38:48.836Z,19.08
2022-11-08T06:41:18.939Z,18.30
2022-11-08T06:43:48.948Z,18.48
2022-11-08T06:46:16.783Z,17.17
2022-11-08T06:48:46.212Z,16.85
2022-11-08T06:51:13.632Z,18.65
2022-11-08T06:53:41.079Z,22.27
2022-11-08T06:56:10.659Z,19.67
2022-11-08T06:58:41.023Z,19.30
2022-11-08T07:01:10.625Z,18.73
2022-11-08T07:03:38.196Z,19.77
2022-11-08T07:06:06.317Z,17.67
2022-11-08T07:08:34.505Z,17.88
2022-11-08T07:11:04.551Z,17.17
2022-11-08T07:13:36.378Z,18.77
2022-11-08T07:16:03.779Z,16.80
2022-11-08T07:18:31.204Z,17.65
2022-11-08T07:21:00.198Z,18.85
2022-11-08T07:23:28.737Z,17.08
2022-11-08T07:25:56.446Z,20.00
2022-11-08T07:28:25.935Z,19.10
2022-11-08T07:30:58.858Z,20.35
2022-11-08T07:33:26.299Z,19.33
2022-11-08T07:35:55.761Z,20.08
2022-11-08T07:38:23.340Z,19.80
2022-11-08T07:40:51.542Z,18.77
2022-11-08T07:43:21.885Z,17.55
2022-11-08T07:45:56.462Z,16.95
2022-11-08T07:48:27.663Z,15.55
2022-11-08T07:50:55.365Z,16.38
2022-11-08T07:53:25.352Z,15.75
2022-11-08T07:55:55.338Z,15.93
2022-11-08T07:58:25.300Z,13.80
2022-11-08T08:00:52.589Z,15.10
2022-11-08T08:03:20.539Z,14.90
2022-11-08T08:05:56.527Z,13.85
2022-11-08T08:08:27.185Z,15.77
2022-11-08T08:10:58.613Z,12.77
2022-11-08T08:13:31.972Z,15.65
2022-11-08T08:16:00.981Z,14.50
2022-11-08T08:18:31.876Z,14.27
2022-11-08T08:20:59.252Z,13.30
2022-11-08T08:23:26.773Z,13.93
2022-11-08T08:25:54.040Z,13.20
2022-11-08T08:28:21.561Z,14.68
2022-11-08T08:30:50.914Z,15.05
2022-11-08T08:33:29.436Z,12.73
2022-11-08T08:35:57.944Z,12.98
2022-11-08T08:38:27.911Z,12.85
2022-11-08T08:40:58.485Z,12.30
2022-11-08T08:43:33.021Z,13.38
2022-11-08T08:46:07.397Z,13.23
2022-11-08T08:48:38.854Z,13.18
2022-11-08T08:51:08.919Z,13.30
2022-11-08T08:53:36.141Z,13.25
2022-11-08T08:56:07.321Z,11.30
2022-11-08T08:58:39.033Z,12.70
2022-11-08T09:03:58.310Z,9.90
2022-11-08T09:06:26.012Z,11.45
2022-11-08T09:08:59.363Z,11.15
2022-11-08T09:11:29.200Z,11.45
2022-11-08T09:13:56.352Z,10.95
2022-11-08T09:16:26.088Z,9.50
2022-11-08T09:18:55.798Z,10.82
2022-11-08T09:21:23.279Z,10.07
2022-11-08T09:23:50.519Z,11.35
2022-11-08T09:26:18.002Z,10.90
2022-11-08T09:28:47.552Z,9.07
2022-11-08T09:31:19.520Z,11.02
2022-11-08T09:33:53.500Z,11.85
2022-11-08T09:36:21.321Z,12.00
2022-11-08T09:38:48.964Z,9.77
2022-11-08T09:41:20.641Z,9.70
2022-11-08T09:44:03.974Z,9.80
2022-11-08T09:46:48.063Z,9.65
2022-11-08T09:49:41.085Z,10.48
2022-11-08T09:52:21.865Z,8.50
2022-11-08T09:54:53.479Z,9.10
2022-11-08T09:57:27.389Z,9.25
2022-11-08T10:00:05.539Z,7.95
2022-11-08T10:02:36.424Z,9.40
2022-11-08T10:07:57.013Z,9.15
2022-11-08T10:11:17.281Z,8.02
2022-11-08T10:14:06.309Z,8.32
2022-11-08T10:16:36.184Z,8.13
2022-11-08T10:19:11.269Z,9.35
2022-11-08T10:22:14.506Z,7.68
2022-11-08T10:25:00.413Z,9.38
2022-11-08T10:27:44.105Z,7.78
2022-11-08T10:30:32.115Z,7.93
2022-11-08T10:33:01.589Z,8.00
2022-11-08T10:35:42.979Z,7.85
2022-11-08T10:38:26.147Z,8.27
2022-11-08T10:41:25.077Z,7.45
2022-11-08T10:44:02.389Z,7.10
2022-11-08T10:46:45.818Z,6.63
2022-11-08T10:49:21.198Z,6.97
2022-11-08T10:51:54.354Z,6.15
2022-11-08T10:54:52.395Z,6.88
2022-11-08T10:57:31.391Z,6.28
2022-11-08T11:00:15.985Z,6.03
2022-11-08T11:02:45.048Z,5.22
2022-11-08T11:05:22.128Z,6.17
2022-11-08T11:08:00.767Z,4.60
2022-11-08T11:10:45.718Z,5.75
2022-11-08T11:13:28.682Z,4.85
2022-11-08T11:16:06.835Z,5.15
2022-11-08T11:18:58.179Z,4.68
2022-11-08T11:21:38.446Z,5.03
2022-11-08T11:24:19.291Z,4.30
2022-11-08T11:26:56.581Z,4.93
2022-11-08T11:29:31.202Z,4.65
2022-11-08T11:32:34.692Z,5.22
2022-11-08T11:35:10.020Z,5.80
2022-11-08T11:37:43.656Z,5.20
2022-11-08T11:40:14.452Z,4.35
2022-11-08T11:43:01.887Z,5.80
2022-11-08T11:45:44.764Z,4.72
2022-11-08T11:48:27.797Z,4.40
2022-11-08T11:50:59.164Z,4.60
2022-11-08T11:53:33.114Z,4.72
2022-11-08T11:56:12.450Z,4.25
2022-11-08T11:59:03.086Z,3.85
2022-11-08T12:01:38.828Z,5.38
2022-11-08T12:04:26.185Z,4.05
2022-11-08T12:07:11.740Z,3.67
2022-11-08T12:09:48.710Z,4.45
2022-11-08T12:12:57.559Z,4.18
2022-11-08T12:15:44.832Z,4.68
2022-11-08T12:18:25.753Z,5.38
2022-11-08T12:21:30.213Z,3.80
2022-11-08T12:24:17.901Z,3.50
2022-11-08T12:26:58.234Z,3.75
2022-11-08T12:29:30.758Z,3.67
2022-11-08T12:32:04.426Z,3.97
2022-11-08T12:34:46.271Z,3.65
2022-11-08T12:37:46.369Z,3.13
2022-11-08T12:40:35.337Z,3.28
2022-11-08T12:43:08.483Z,3.35
2022-11-08T12:46:01.724Z,3.38
2022-11-08T12:48:49.753Z,2.95
2022-11-08T12:51:40.631Z,3.42
2022-11-08T12:54:31.521Z,3.28
2022-11-08T12:57:08.309Z,3.80
2022-11-08T12:59:47.683Z,3.72
2022-11-08T13:02:32.128Z,40.80
2022-11-08T13:05:18.093Z,3.60
2022-11-08T13:08:12.965Z,4.43
2022-11-08T13:11:00.876Z,3.90
2022-11-08T13:13:36.933Z,3.47
2022-11-08T13:16:16.204Z,3.65
2022-11-08T13:18:51.993Z,4.57
2022-11-08T13:21:27.524Z,3.50
2022-11-08T13:24:42.964Z,3.53
2022-11-08T13:27:29.873Z,3.42
2022-11-08T13:30:11.381Z,3.30
2022-11-08T13:33:08.059Z,4.25
2022-11-08T13:36:18.489Z,4.25
2022-11-08T13:39:19.174Z,3.22
2022-11-08T13:42:08.620Z,3.83
2022-11-08T13:44:54.505Z,3.90
2022-11-08T13:47:36.777Z,4.43
2022-11-08T13:50:29.320Z,4.07
2022-11-08T13:53:23.278Z,3.47
2022-11-08T13:55:58.009Z,3.80
2022-11-08T13:58:47.811Z,4.82
2022-11-08T14:01:21.046Z,3.28
2022-11-08T14:03:51.540Z,3.72
2022-11-08T14:06:43.330Z,3.65
2022-11-08T14:09:30.684Z,4.07
2022-11-08T14:12:15.695Z,4.30
2022-11-08T14:15:10.433Z,3.17
2022-11-08T14:17:48.869Z,3.10
2022-11-08T14:20:16.593Z,3.85
2022-11-08T14:22:49.949Z,3.45
2022-11-08T14:25:31.293Z,3.65
2022-11-08T14:27:58.733Z,3.70
2022-11-08T14:30:29.013Z,3.78
2022-11-08T14:33:31.717Z,3.22
2022-11-08T14:36:07.659Z,3.97
2022-11-08T14:39:13.888Z,4.00
2022-11-08T14:41:46.562Z,3.97
2022-11-08T14:44:19.487Z,5.50
2022-11-08T14:46:48.529Z,5.65
2022-11-08T14:49:18.681Z,5.15
2022-11-08T14:52:06.469Z,3.78
2022-11-08T14:54:42.626Z,4.30
2022-11-08T14:57:33.187Z,3.72
2022-11-08T15:00:05.480Z,3.92
2022-11-08T15:02:36.762Z,4.13
2022-11-08T15:05:06.559Z,4.28
2022-11-08T15:07:36.677Z,4.30
2022-11-08T15:10:08.619Z,5.25
2022-11-08T15:12:42.414Z,4.25
2022-11-08T15:15:22.093Z,6.38
2022-11-08T15:18:29.257Z,4.78
2022-11-08T15:21:04.729Z,7.18
2022-11-08T15:23:43.141Z,6.45
2022-11-08T15:26:31.704Z,7.35
2022-11-08T15:29:05.902Z,8.23
2022-11-08T15:31:42.025Z,8.48
2022-11-08T15:34:25.593Z,9.32
2022-11-08T15:36:53.882Z,9.85
2022-11-08T15:39:36.538Z,9.48
2022-11-08T15:42:15.441Z,12.90
2022-11-08T15:45:07.841Z,25.13
2022-11-08T15:47:42.116Z,21.67
2022-11-08T15:50:17.546Z,21.85
2022-11-08T15:52:46.977Z,20.88
2022-11-08T15:55:22.671Z,19.13
2022-11-08T15:57:50.460Z,17.48
2022-11-08T16:00:26.740Z,16.27
2022-11-08T16:02:54.157Z,17.67
2022-11-08T16:05:24.719Z,19.73
2022-11-08T16:07:52.727Z,17.55
2022-11-08T16:10:31.758Z,22.02
2022-11-08T16:13:01.022Z,30.98
2022-11-08T16:15:34.229Z,41.33
2022-11-08T16:18:02.662Z,37.38
2022-11-08T16:20:33.152Z,34.40
2022-11-08T16:23:10.990Z,30.80
2022-11-08T16:25:50.672Z,29.58
2022-11-08T16:28:38.320Z,29.83
2022-11-08T16:31:10.917Z,30.75
2022-11-08T16:33:37.997Z,29.48
2022-11-08T16:36:23.130Z,28.65
2022-11-08T16:38:54.240Z,22.23
2022-11-08T16:41:25.357Z,21.73
2022-11-08T16:43:52.693Z,26.45
2022-11-08T16:46:21.678Z,27.70
2022-11-08T16:48:54.317Z,25.92
2022-11-08T16:51:23.278Z,28.25
2022-11-08T16:53:53.496Z,26.30
2022-11-08T16:56:23.296Z,29.90
2022-11-08T16:58:55.105Z,28.45
2022-11-08T17:01:33.030Z,29.50
2022-11-08T17:04:00.468Z,28.98
2022-11-08T17:06:30.329Z,29.20
2022-11-08T17:08:59.840Z,26.42
2022-11-08T17:11:31.774Z,26.73
2022-11-08T17:13:59.271Z,31.52
2022-11-08T17:16:27.270Z,27.30
2022-11-08T17:18:54.677Z,25.35
2022-11-08T17:21:44.751Z,28.85
2022-11-08T17:24:20.939Z,28.67
2022-11-08T17:26:50.176Z,27.15
2022-11-08T17:29:20.179Z,25.40
2022-11-08T17:31:50.279Z,24.27
2022-11-08T17:34:20.415Z,33.60
2022-11-08T17:36:47.832Z,28.13
2022-11-08T17:39:17.513Z,30.20
2022-11-08T17:41:44.910Z,68.85
2022-11-08T17:44:15.017Z,34.78
2022-11-08T17:46:44.903Z,25.95
2022-11-08T17:49:12.213Z,26.10
2022-11-08T17:51:39.741Z,23.10
2022-11-08T17:54:08.966Z,24.67
2022-11-08T17:56:39.017Z,25.02
2022-11-08T17:59:08.281Z,26.35
2022-11-08T18:01:38.821Z,26.30
2022-11-08T18:04:06.643Z,24.75
2022-11-08T18:06:34.484Z,27.15
2022-11-08T18:09:07.072Z,27.70
2022-11-08T18:11:38.448Z,28.88
2022-11-08T18:14:06.044Z,32.80
2022-11-08T18:16:37.682Z,32.80
2022-11-08T18:19:07.364Z,34.72
2022-11-08T18:24:07.660Z,33.10
2022-11-08T18:26:40.100Z,31.83
2022-11-08T18:29:10.395Z,30.75
2022-11-08T18:31:38.483Z,31.23
2022-11-08T18:34:05.687Z,31.95
2022-11-08T18:36:36.127Z,31.23
2022-11-08T18:39:05.778Z,32.03
2022-11-08T18:41:34.092Z,33.08
2022-11-08T18:44:01.426Z,32.25
2022-11-08T18:46:36.529Z,33.80
2022-11-08T18:49:06.228Z,34.92
2022-11-08T18:51:33.645Z,32.45
2022-11-08T18:54:00.813Z,34.05
2022-11-08T18:56:30.705Z,32.45
2022-11-08T18:59:02.503Z,30.08
2022-11-08T19:01:30.651Z,31.38
2022-11-08T19:04:02.126Z,32.50
2022-11-08T19:06:32.183Z,33.17
2022-11-08T19:08:59.327Z,32.75
2022-11-08T19:11:30.472Z,32.97
2022-11-08T19:14:01.964Z,31.52
2022-11-08T19:16:29.965Z,31.13
2022-11-08T19:18:59.983Z,32.58
2022-11-08T19:21:27.891Z,33.83
2022-11-08T19:23:59.213Z,31.27
2022-11-08T19:26:29.561Z,30.05
2022-11-08T19:28:59.537Z,29.13
2022-11-08T19:31:27.048Z,30.00
2022-11-08T19:33:55.026Z,30.63
2022-11-08T19:36:24.910Z,29.40
2022-11-08T19:38:54.788Z,29.42
2022-11-08T19:41:27.208Z,29.00
2022-11-08T19:43:55.169Z,30.80
2022-11-08T19:46:29.133Z,31.02
2022-11-08T19:49:01.989Z,30.58
2022-11-08T19:51:34.273Z,31.33
2022-11-08T19:54:06.892Z,32.70
2022-11-08T19:57:03.981Z,30.55
2022-11-08T19:59:26.451Z,31.23
2022-11-08T20:01:56.610Z,29.40
2022-11-08T20:04:26.444Z,29.42
2022-11-08T20:06:54.178Z,70.03
2022-11-08T20:09:25.904Z,33.05
2022-11-08T20:11:56.890Z,29.73
2022-11-08T20:14:24.646Z,29.65
2022-11-08T20:16:54.659Z,26.65
2022-11-08T20:19:26.861Z,30.27
2022-11-08T20:21:57.229Z,29.73
2022-11-08T20:24:27.312Z,29.67
2022-11-08T20:26:55.397Z,26.40
2022-11-08T20:29:25.784Z,25.20
2022-11-08T20:34:26.910Z,26.67
2022-11-08T20:36:54.564Z,27.30
2022-11-08T20:39:26.577Z,30.05
2022-11-08T20:41:56.893Z,27.45
2022-11-08T20:44:29.019Z,24.95
2022-11-08T20:46:58.789Z,27.70
2022-11-08T20:49:26.433Z,27.55
2022-11-08T20:52:00.684Z,26.17
2022-11-08T20:54:30.475Z,25.95
2022-11-08T20:56:57.636Z,24.83
2022-11-08T20:59:25.135Z,24.70
2022-11-08T21:01:52.523Z,25.20
2022-11-08T21:04:20.122Z,24.88
2022-11-08T21:06:47.487Z,25.77
2022-11-08T21:09:36.250Z,31.15
2022-11-08T21:12:04.775Z,28.23
2022-11-08T21:14:35.071Z,28.30
2022-11-08T21:19:51.829Z,24.85
2022-11-08T21:22:19.762Z,39.08
2022-11-08T21:24:50.217Z,38.65
2022-11-08T21:27:19.976Z,30.10
2022-11-08T21:29:50.724Z,28.52
2022-11-08T21:32:18.468Z,28.08
2022-11-08T21:34:47.325Z,27.17
2022-11-08T21:37:16.850Z,26.42
2022-11-08T21:39:46.692Z,24.08
2022-11-08T21:42:14.343Z,25.55
2022-11-08T21:44:41.821Z,25.10
2022-11-08T21:47:09.878Z,27.15
2022-11-08T21:49:40.034Z,24.70
2022-11-08T21:52:09.752Z,25.10
2022-11-08T21:54:37.486Z,25.73
2022-11-08T21:57:07.569Z,25.48
2022-11-08T21:59:39.817Z,26.00
2022-11-08T22:02:10.488Z,25.15
2022-11-08T22:04:38.311Z,26.80
2022-11-08T22:07:05.613Z,25.58
2022-11-08T22:09:35.339Z,26.85
2022-11-08T22:12:07.266Z,27.35
2022-11-08T22:14:35.866Z,25.92
2022-11-08T22:17:03.281Z,27.23
2022-11-08T22:19:33.154Z,26.90
2022-11-08T22:22:05.332Z,25.92
2022-11-08T22:26:59.790Z,27.65
2022-11-08T22:29:27.025Z,28.38
2022-11-08T22:31:56.541Z,26.15
2022-11-08T22:34:24.175Z,26.55
2022-11-08T22:36:51.759Z,34.10
2022-11-08T22:39:21.135Z,27.83
2022-11-08T22:41:51.330Z,28.48
2022-11-08T22:44:19.930Z,28.33
2022-11-08T22:46:55.754Z,27.73
2022-11-08T22:49:23.056Z,30.63
2022-11-08T22:51:50.494Z,29.33
2022-11-08T22:54:20.329Z,29.92
2022-11-08T22:56:50.475Z,29.48
2022-11-08T22:59:22.002Z,27.98
2022-11-08T23:04:21.840Z,29.25
2022-11-08T23:06:49.812Z,29.60
2022-11-08T23:09:21.853Z,30.23
2022-11-08T23:12:16.288Z,32.60
2022-11-08T23:15:19.060Z,30.25
2022-11-08T23:17:48.522Z,30.02
2022-11-08T23:20:38.911Z,29.92
2022-11-08T23:23:29.031Z,30.33
2022-11-08T23:25:56.836Z,31.90
2022-11-08T23:28:45.772Z,30.83
2022-11-08T23:31:32.104Z,30.08
2022-11-08T23:33:59.646Z,30.23
2022-11-08T23:36:28.537Z,29.58
2022-11-08T23:39:00.631Z,30.77
2022-11-08T23:41:48.320Z,31.08
2022-11-08T23:44:24.588Z,31.08
2022-11-08T23:46:56.076Z,29.40
2022-11-08T23:49:26.078Z,31.55
2022-11-08T23:51:53.761Z,29.80
2022-11-08T23:54:28.339Z,32.08
2022-11-08T23:56:55.533Z,33.17
2022-11-08T23:59:25.036Z,31.83
